createdAt,value
2014-08-08T00:00:05.259Z,0
2014-08-08T00:00:23.540Z,0
2014-08-08T00:00:41.821Z,0
2014-08-08T00:01:00.120Z,0
2014-08-08T00:01:18.401Z,0
2014-08-08T00:01:36.698Z,0
2014-08-08T00:01:54.981Z,0
2014-08-08T00:02:13.278Z,0
2014-08-08T00:02:31.560Z,0
2014-08-08T00:02:49.858Z,0
2014-08-08T00:03:08.140Z,0
2014-08-08T00:03:26.421Z,0
2014-08-08T00:03:44.718Z,0
2014-08-08T00:04:03.001Z,0
2014-08-08T00:04:21.485Z,0
2014-08-08T00:04:39.579Z,0
2014-08-08T00:04:58.067Z,0
2014-08-08T00:05:16.145Z,0
2014-08-08T00:05:34.442Z,0
2014-08-08T00:05:52.723Z,0
2014-08-08T00:06:11.005Z,0
2014-08-08T00:06:29.286Z,0
2014-08-08T00:06:47.583Z,0
2014-08-08T00:07:05.867Z,0
2014-08-08T00:07:24.164Z,0
2014-08-08T00:07:42.446Z,0
2014-08-08T00:08:00.727Z,0
2014-08-08T00:08:19.025Z,0
2014-08-08T00:08:37.306Z,0
2014-08-08T00:08:55.603Z,0
2014-08-08T00:09:13.886Z,0
2014-08-08T00:09:32.167Z,0
2014-08-08T00:09:50.464Z,0
2014-08-08T00:10:08.745Z,0
2014-08-08T00:10:27.045Z,0
2014-08-08T00:10:45.327Z,0
2014-08-08T00:11:03.608Z,0
2014-08-08T00:11:21.907Z,0
2014-08-08T00:11:40.188Z,0
2014-08-08T00:11:58.469Z,0
2014-08-08T00:12:16.766Z,0
2014-08-08T00:12:35.049Z,0
2014-08-08T00:12:53.346Z,0
2014-08-08T00:13:11.627Z,0
2014-08-08T00:13:29.910Z,0
2014-08-08T00:13:48.394Z,0
2014-08-08T00:14:06.488Z,0
2014-08-08T00:14:24.769Z,0
2014-08-08T00:14:43.069Z,0
2014-08-08T00:15:01.350Z,0
2014-08-08T00:15:19.631Z,0
2014-08-08T00:15:37.930Z,0
2014-08-08T00:15:56.212Z,0
2014-08-08T00:16:14.508Z,0
2014-08-08T00:16:32.790Z,0
2014-08-08T00:16:51.072Z,0
2014-08-08T00:17:09.556Z,0
2014-08-08T00:17:27.650Z,0
2014-08-08T00:17:45.934Z,0
2014-08-08T00:18:04.231Z,0
2014-08-08T00:18:22.512Z,0
2014-08-08T00:18:40.809Z,0
2014-08-08T00:18:59.093Z,0
2014-08-08T00:19:17.374Z,0
2014-08-08T00:19:35.671Z,0
2014-08-08T00:19:53.954Z,0
2014-08-08T00:20:12.235Z,0
2014-08-08T00:20:30.516Z,0
2014-08-08T00:20:48.800Z,0
2014-08-08T00:21:07.300Z,0
2014-08-08T00:21:25.393Z,0
2014-08-08T00:21:43.675Z,0
2014-08-08T00:22:01.958Z,0
2014-08-08T00:22:20.239Z,0
2014-08-08T00:22:38.536Z,0
2014-08-08T00:22:56.818Z,0
2014-08-08T00:23:15.100Z,0
2014-08-08T00:23:33.396Z,0
2014-08-08T00:23:51.680Z,0
2014-08-08T00:24:09.977Z,0
2014-08-08T00:24:28.461Z,0
2014-08-08T00:24:46.539Z,0
2014-08-08T00:25:04.839Z,0
2014-08-08T00:25:23.120Z,0
2014-08-08T00:25:41.401Z,0
2014-08-08T00:25:59.699Z,0
2014-08-08T00:26:17.981Z,0
2014-08-08T00:26:36.262Z,0
2014-08-08T00:26:54.561Z,0
2014-08-08T00:27:12.842Z,0
2014-08-08T00:27:31.123Z,0
2014-08-08T00:27:49.422Z,0
2014-08-08T00:28:07.906Z,0
2014-08-08T00:28:25.985Z,0
2014-08-08T00:28:44.281Z,0
2014-08-08T00:29:02.565Z,0
2014-08-08T00:29:20.862Z,0
2014-08-08T00:29:39.143Z,0
2014-08-08T00:29:57.426Z,0
2014-08-08T00:30:15.723Z,0
2014-08-08T00:30:34.004Z,0
2014-08-08T00:30:52.287Z,0
2014-08-08T00:31:10.584Z,0
2014-08-08T00:31:28.866Z,0
2014-08-08T00:31:47.366Z,0
2014-08-08T00:32:05.446Z,0
2014-08-08T00:32:23.727Z,0
2014-08-08T00:32:42.024Z,0
2014-08-08T00:33:00.307Z,0
2014-08-08T00:33:18.604Z,0
2014-08-08T00:33:36.885Z,0
2014-08-08T00:33:55.166Z,0
2014-08-08T00:34:13.466Z,0
2014-08-08T00:34:31.748Z,0
2014-08-08T00:34:50.044Z,0
2014-08-08T00:35:08.327Z,0
2014-08-08T00:35:26.624Z,0
2014-08-08T00:35:44.905Z,0
2014-08-08T00:36:03.186Z,0
2014-08-08T00:36:21.469Z,0
2014-08-08T00:36:39.766Z,0
2014-08-08T00:36:58.047Z,0
2014-08-08T00:37:16.346Z,0
2014-08-08T00:37:34.628Z,0
2014-08-08T00:37:52.924Z,0
2014-08-08T00:38:11.206Z,0
2014-08-08T00:38:29.505Z,0
2014-08-08T00:38:47.786Z,0
2014-08-08T00:39:06.067Z,0
2014-08-08T00:39:24.351Z,0
2014-08-08T00:39:42.648Z,0
2014-08-08T00:40:00.929Z,0
2014-08-08T00:40:19.226Z,0
2014-08-08T00:40:37.509Z,0
2014-08-08T00:40:55.790Z,0
2014-08-08T00:41:14.071Z,0
2014-08-08T00:41:32.371Z,0
2014-08-08T00:41:50.652Z,0
2014-08-08T00:42:08.933Z,0
2014-08-08T00:42:27.433Z,0
2014-08-08T00:42:45.513Z,0
2014-08-08T00:43:03.794Z,0
2014-08-08T00:43:22.091Z,0
2014-08-08T00:43:40.374Z,0
2014-08-08T00:43:58.655Z,0
2014-08-08T00:44:16.952Z,0
2014-08-08T00:44:35.233Z,0
2014-08-08T00:44:53.518Z,0
2014-08-08T00:45:11.799Z,0
2014-08-08T00:45:30.096Z,0
2014-08-08T00:45:48.378Z,0
2014-08-08T00:46:06.659Z,0
2014-08-08T00:46:24.940Z,0
2014-08-08T00:46:43.237Z,0
2014-08-08T00:47:01.724Z,0
2014-08-08T00:47:19.817Z,0
2014-08-08T00:47:38.099Z,0
2014-08-08T00:47:56.383Z,0
2014-08-08T00:48:14.680Z,0
2014-08-08T00:48:32.961Z,0
2014-08-08T00:48:51.244Z,0
2014-08-08T00:49:09.526Z,0
2014-08-08T00:49:27.822Z,0
2014-08-08T00:49:46.104Z,0
2014-08-08T00:50:04.387Z,0
2014-08-08T00:50:22.668Z,0
2014-08-08T00:50:40.949Z,0
2014-08-08T00:50:59.248Z,0
2014-08-08T00:51:17.530Z,0
2014-08-08T00:51:35.811Z,0
2014-08-08T00:51:54.109Z,0
2014-08-08T00:52:12.390Z,0
2014-08-08T00:52:30.687Z,0
2014-08-08T00:52:48.970Z,0
2014-08-08T00:53:07.251Z,0
2014-08-08T00:53:25.548Z,0
2014-08-08T00:53:43.829Z,0
2014-08-08T00:54:02.113Z,0
2014-08-08T00:54:20.613Z,0
2014-08-08T00:54:38.691Z,0
2014-08-08T00:54:57.177Z,0
2014-08-08T00:55:15.271Z,0
2014-08-08T00:55:33.568Z,0
2014-08-08T00:55:51.851Z,0
2014-08-08T00:56:10.132Z,0
2014-08-08T00:56:28.429Z,0
2014-08-08T00:56:46.710Z,0
2014-08-08T00:57:05.009Z,0
2014-08-08T00:57:23.291Z,0
2014-08-08T00:57:41.572Z,0
2014-08-08T00:57:59.871Z,0
2014-08-08T00:58:18.152Z,0
2014-08-08T00:58:36.433Z,0
2014-08-08T00:58:54.716Z,0
2014-08-08T00:59:13.013Z,0
2014-08-08T00:59:31.498Z,0
2014-08-08T00:59:49.593Z,0
2014-08-08T01:00:07.875Z,0
2014-08-08T01:00:26.156Z,0
2014-08-08T01:00:44.640Z,0
2014-08-08T01:01:02.735Z,0
2014-08-08T01:01:21.016Z,0
2014-08-08T01:01:39.313Z,0
2014-08-08T01:01:57.596Z,0
2014-08-08T01:02:15.878Z,0
2014-08-08T01:02:34.175Z,0
2014-08-08T01:02:52.458Z,0
2014-08-08T01:03:10.739Z,0
2014-08-08T01:03:29.036Z,0
2014-08-08T01:03:47.317Z,0
2014-08-08T01:04:05.616Z,0
2014-08-08T01:04:23.897Z,0
2014-08-08T01:04:42.194Z,0
2014-08-08T01:05:00.477Z,0
2014-08-08T01:05:18.759Z,0
2014-08-08T01:05:37.040Z,0
2014-08-08T01:05:55.339Z,0
2014-08-08T01:06:13.620Z,0
2014-08-08T01:06:31.917Z,0
2014-08-08T01:06:50.200Z,0
2014-08-08T01:07:08.481Z,0
2014-08-08T01:07:26.778Z,0
2014-08-08T01:07:45.060Z,0
2014-08-08T01:08:03.359Z,0
2014-08-08T01:08:21.641Z,0
2014-08-08T01:08:39.922Z,0
2014-08-08T01:08:58.220Z,0
2014-08-08T01:09:16.501Z,0
2014-08-08T01:09:34.798Z,0
2014-08-08T01:09:53.079Z,0
2014-08-08T01:10:11.378Z,0
2014-08-08T01:10:29.659Z,0
2014-08-08T01:10:47.941Z,0
2014-08-08T01:11:06.224Z,0
2014-08-08T01:11:24.521Z,0
2014-08-08T01:11:42.802Z,0
2014-08-08T01:12:01.099Z,0
2014-08-08T01:12:19.382Z,0
2014-08-08T01:12:37.663Z,0
2014-08-08T01:12:55.960Z,0
2014-08-08T01:13:14.244Z,0
2014-08-08T01:13:32.541Z,0
2014-08-08T01:13:50.823Z,0
2014-08-08T01:14:09.104Z,0
2014-08-08T01:14:27.402Z,0
2014-08-08T01:14:45.683Z,0
2014-08-08T01:15:03.980Z,0
2014-08-08T01:15:22.263Z,0
2014-08-08T01:15:40.544Z,0
2014-08-08T01:15:58.841Z,0
2014-08-08T01:16:17.122Z,0
2014-08-08T01:16:35.407Z,0
2014-08-08T01:16:53.704Z,0
2014-08-08T01:17:11.985Z,0
2014-08-08T01:17:30.267Z,0
2014-08-08T01:17:48.564Z,0
2014-08-08T01:18:06.845Z,0
2014-08-08T01:18:25.142Z,0
2014-08-08T01:18:43.426Z,0
2014-08-08T01:19:01.911Z,0
2014-08-08T01:19:20.004Z,0
2014-08-08T01:19:38.287Z,0
2014-08-08T01:19:56.568Z,0
2014-08-08T01:20:14.849Z,0
2014-08-08T01:20:33.146Z,0
2014-08-08T01:20:51.430Z,0
2014-08-08T01:21:09.712Z,0
2014-08-08T01:21:27.993Z,0
2014-08-08T01:21:46.276Z,0
2014-08-08T01:22:04.573Z,0
2014-08-08T01:22:23.057Z,0
2014-08-08T01:22:41.151Z,0
2014-08-08T01:22:59.434Z,0
2014-08-08T01:23:17.716Z,0
2014-08-08T01:23:36.012Z,0
2014-08-08T01:23:54.295Z,0
2014-08-08T01:24:12.576Z,0
2014-08-08T01:24:30.857Z,0
2014-08-08T01:24:49.140Z,0
2014-08-08T01:25:07.640Z,0
2014-08-08T01:25:25.719Z,0
2014-08-08T01:25:44.000Z,0
2014-08-08T01:26:02.284Z,0
2014-08-08T01:26:20.581Z,0
2014-08-08T01:26:38.862Z,0
2014-08-08T01:26:57.145Z,0
2014-08-08T01:27:15.442Z,0
2014-08-08T01:27:33.724Z,0
2014-08-08T01:27:52.007Z,0
2014-08-08T01:28:10.319Z,0
2014-08-08T01:28:28.585Z,0
2014-08-08T01:28:46.866Z,0
2014-08-08T01:29:05.164Z,0
2014-08-08T01:29:23.445Z,0
2014-08-08T01:29:41.727Z,0
2014-08-08T01:30:00.025Z,0
2014-08-08T01:30:18.307Z,0
2014-08-08T01:30:36.588Z,0
2014-08-08T01:30:54.871Z,0
2014-08-08T01:31:13.152Z,0
2014-08-08T01:31:31.449Z,0
2014-08-08T01:31:49.733Z,0
2014-08-08T01:32:08.014Z,0
2014-08-08T01:32:26.498Z,0
2014-08-08T01:32:44.576Z,0
2014-08-08T01:33:05.297Z,0
2014-08-08T01:33:23.594Z,0
2014-08-08T01:33:41.875Z,0
2014-08-08T01:34:00.158Z,0
2014-08-08T01:34:18.440Z,0
2014-08-08T01:34:36.940Z,0
2014-08-08T01:34:55.020Z,0
2014-08-08T01:35:13.301Z,0
2014-08-08T01:35:31.598Z,0
2014-08-08T01:35:49.879Z,0
2014-08-08T01:36:08.366Z,0
2014-08-08T01:36:26.444Z,0
2014-08-08T01:36:44.725Z,0
2014-08-08T01:37:03.024Z,0
2014-08-08T01:37:21.305Z,0
2014-08-08T01:37:39.602Z,0
2014-08-08T01:37:57.883Z,0
2014-08-08T01:38:16.370Z,0
2014-08-08T01:38:34.463Z,0
2014-08-08T01:38:52.745Z,0
2014-08-08T01:39:11.028Z,0
2014-08-08T01:39:29.309Z,0
2014-08-08T01:39:47.590Z,0
2014-08-08T01:40:05.887Z,0
2014-08-08T01:40:24.170Z,0
2014-08-08T01:40:42.452Z,0
2014-08-08T01:41:00.733Z,0
2014-08-08T01:41:19.032Z,0
2014-08-08T01:41:37.313Z,0
2014-08-08T01:41:55.594Z,0
2014-08-08T01:42:13.876Z,0
2014-08-08T01:42:32.175Z,0
2014-08-08T01:42:50.457Z,0
2014-08-08T01:43:08.738Z,0
2014-08-08T01:43:27.020Z,0
2014-08-08T01:43:45.317Z,0
2014-08-08T01:44:03.598Z,0
2014-08-08T01:44:21.880Z,0
2014-08-08T01:44:40.164Z,0
2014-08-08T01:44:58.461Z,0
2014-08-08T01:45:16.742Z,0
2014-08-08T01:45:35.025Z,0
2014-08-08T01:45:53.306Z,0
2014-08-08T01:46:11.588Z,0
2014-08-08T01:46:29.885Z,0
2014-08-08T01:46:48.168Z,0
2014-08-08T01:47:06.652Z,0
2014-08-08T01:47:24.730Z,0
2014-08-08T01:47:43.029Z,0
2014-08-08T01:48:01.310Z,0
2014-08-08T01:48:19.592Z,0
2014-08-08T01:48:37.873Z,0
2014-08-08T01:48:56.359Z,0
2014-08-08T01:49:14.453Z,0
2014-08-08T01:49:32.937Z,0
2014-08-08T01:49:51.033Z,0
2014-08-08T01:50:09.518Z,0
2014-08-08T01:50:27.596Z,0
2014-08-08T01:50:45.877Z,0
2014-08-08T01:51:04.362Z,0
2014-08-08T01:51:22.456Z,0
2014-08-08T01:51:40.737Z,0
2014-08-08T01:51:59.021Z,0
2014-08-08T01:52:17.505Z,0
2014-08-08T01:52:35.583Z,0
2014-08-08T01:52:53.883Z,0
2014-08-08T01:53:12.164Z,0
2014-08-08T01:53:30.445Z,0
2014-08-08T01:53:48.742Z,0
2014-08-08T01:54:07.026Z,0
2014-08-08T01:54:25.307Z,0
2014-08-08T01:54:43.604Z,0
2014-08-08T01:55:01.886Z,0
2014-08-08T01:55:20.167Z,0
2014-08-08T01:55:38.448Z,0
2014-08-08T01:55:56.745Z,0
2014-08-08T01:56:15.030Z,0
2014-08-08T01:56:33.326Z,0
2014-08-08T01:56:51.608Z,0
2014-08-08T01:57:09.891Z,0
2014-08-08T01:57:28.172Z,0
2014-08-08T01:57:46.469Z,0
2014-08-08T01:58:04.750Z,0
2014-08-08T01:58:23.034Z,0
2014-08-08T01:58:41.330Z,0
2014-08-08T01:58:59.612Z,0
2014-08-08T01:59:18.098Z,0
2014-08-08T01:59:36.192Z,0
2014-08-08T01:59:54.473Z,0
2014-08-08T02:00:12.754Z,0
2014-08-08T02:00:31.053Z,0
2014-08-08T02:00:49.538Z,0
2014-08-08T02:01:07.616Z,0
2014-08-08T02:01:25.915Z,0
2014-08-08T02:01:44.196Z,0
2014-08-08T02:02:02.477Z,0
2014-08-08T02:02:20.774Z,0
2014-08-08T02:02:39.057Z,0
2014-08-08T02:02:57.338Z,0
2014-08-08T02:03:15.635Z,0
2014-08-08T02:03:33.919Z,0
2014-08-08T02:03:52.403Z,0
2014-08-08T02:04:10.497Z,0
2014-08-08T02:04:28.778Z,0
2014-08-08T02:04:47.061Z,0
2014-08-08T02:05:05.358Z,0
2014-08-08T02:05:23.639Z,0
2014-08-08T02:05:41.939Z,0
2014-08-08T02:06:00.220Z,0
2014-08-08T02:06:18.502Z,0
2014-08-08T02:06:36.799Z,0
2014-08-08T02:06:55.081Z,0
2014-08-08T02:07:13.362Z,0
2014-08-08T02:07:31.659Z,0
2014-08-08T02:07:49.942Z,0
2014-08-08T02:08:08.223Z,0
2014-08-08T02:08:26.520Z,0
2014-08-08T02:08:44.802Z,0
2014-08-08T02:09:03.100Z,0
2014-08-08T02:09:21.382Z,0
2014-08-08T02:09:39.866Z,0
2014-08-08T02:09:57.962Z,0
2014-08-08T02:10:16.243Z,0
2014-08-08T02:10:34.524Z,0
2014-08-08T02:10:52.823Z,0
2014-08-08T02:11:11.104Z,0
2014-08-08T02:11:29.386Z,0
2014-08-08T02:11:47.683Z,0
2014-08-08T02:12:05.967Z,0
2014-08-08T02:12:24.248Z,0
2014-08-08T02:12:42.545Z,0
2014-08-08T02:13:00.828Z,0
2014-08-08T02:13:19.109Z,0
2014-08-08T02:13:37.406Z,0
2014-08-08T02:13:55.688Z,0
2014-08-08T02:14:13.971Z,0
2014-08-08T02:14:32.268Z,0
2014-08-08T02:14:50.549Z,0
2014-08-08T02:15:08.831Z,0
2014-08-08T02:15:27.128Z,0
2014-08-08T02:15:45.409Z,0
2014-08-08T02:16:03.691Z,0
2014-08-08T02:16:21.990Z,0
2014-08-08T02:16:40.272Z,0
2014-08-08T02:16:58.553Z,0
2014-08-08T02:17:16.851Z,0
2014-08-08T02:17:35.132Z,0
2014-08-08T02:17:53.429Z,0
2014-08-08T02:18:11.710Z,0
2014-08-08T02:18:29.994Z,0
2014-08-08T02:18:48.276Z,0
2014-08-08T02:19:06.573Z,0
2014-08-08T02:19:24.855Z,0
2014-08-08T02:19:43.136Z,0
2014-08-08T02:20:01.417Z,0
2014-08-08T02:20:19.714Z,0
2014-08-08T02:20:37.998Z,0
2014-08-08T02:20:56.295Z,0
2014-08-08T02:21:14.577Z,0
2014-08-08T02:21:32.875Z,0
2014-08-08T02:21:51.172Z,0
2014-08-08T02:22:09.672Z,0
2014-08-08T02:22:27.750Z,0
2014-08-08T02:22:46.237Z,0
2014-08-08T02:23:04.331Z,0
2014-08-08T02:23:22.612Z,0
2014-08-08T02:23:40.911Z,0
2014-08-08T02:23:59.192Z,0
2014-08-08T02:24:17.473Z,0
2014-08-08T02:24:35.770Z,0
2014-08-08T02:24:54.053Z,0
2014-08-08T02:25:12.335Z,0
2014-08-08T02:25:30.631Z,0
2014-08-08T02:25:48.914Z,0
2014-08-08T02:26:07.211Z,0
2014-08-08T02:26:25.492Z,0
2014-08-08T02:26:43.773Z,0
2014-08-08T02:27:02.056Z,0
2014-08-08T02:27:20.338Z,0
2014-08-08T02:27:38.634Z,0
2014-08-08T02:27:56.919Z,0
2014-08-08T02:28:15.200Z,0
2014-08-08T02:28:33.497Z,0
2014-08-08T02:28:51.780Z,0
2014-08-08T02:29:10.061Z,0
2014-08-08T02:29:28.358Z,0
2014-08-08T02:29:46.639Z,0
2014-08-08T02:30:04.923Z,0
2014-08-08T02:30:23.220Z,0
2014-08-08T02:30:41.501Z,0
2014-08-08T02:30:59.783Z,0
2014-08-08T02:31:18.064Z,0
2014-08-08T02:31:36.361Z,0
2014-08-08T02:31:54.644Z,0
2014-08-08T02:32:12.941Z,0
2014-08-08T02:32:31.223Z,0
2014-08-08T02:32:49.504Z,0
2014-08-08T02:33:07.803Z,0
2014-08-08T02:33:26.084Z,0
2014-08-08T02:33:44.381Z,0
2014-08-08T02:34:02.664Z,0
2014-08-08T02:34:20.945Z,0
2014-08-08T02:34:39.227Z,0
2014-08-08T02:34:57.525Z,0
2014-08-08T02:35:15.807Z,0
2014-08-08T02:35:34.088Z,0
2014-08-08T02:35:52.370Z,0
2014-08-08T02:36:10.667Z,0
2014-08-08T02:36:28.948Z,0
2014-08-08T02:36:47.230Z,0
2014-08-08T02:37:05.529Z,0
2014-08-08T02:37:23.811Z,0
2014-08-08T02:37:42.092Z,0
2014-08-08T02:38:00.375Z,0
2014-08-08T02:38:18.672Z,0
2014-08-08T02:38:37.156Z,0
2014-08-08T02:38:55.237Z,0
2014-08-08T02:39:13.518Z,0
2014-08-08T02:39:31.815Z,0
2014-08-08T02:39:50.114Z,0
2014-08-08T02:40:08.395Z,0
2014-08-08T02:40:26.676Z,0
2014-08-08T02:40:44.973Z,0
2014-08-08T02:41:03.256Z,0
2014-08-08T02:41:21.553Z,0
2014-08-08T02:41:39.834Z,0
2014-08-08T02:41:58.117Z,0
2014-08-08T02:42:16.413Z,0
2014-08-08T02:42:34.695Z,0
2014-08-08T02:42:52.978Z,0
2014-08-08T02:43:11.275Z,0
2014-08-08T02:43:29.759Z,0
2014-08-08T02:43:47.837Z,0
2014-08-08T02:44:06.136Z,0
2014-08-08T02:44:24.417Z,0
2014-08-08T02:44:42.699Z,0
2014-08-08T02:45:00.982Z,0
2014-08-08T02:45:19.279Z,0
2014-08-08T02:45:37.560Z,0
2014-08-08T02:45:55.843Z,0
2014-08-08T02:46:14.140Z,0
2014-08-08T02:46:32.421Z,0
2014-08-08T02:46:50.705Z,0
2014-08-08T02:47:09.002Z,0
2014-08-08T02:47:27.283Z,0
2014-08-08T02:47:45.564Z,0
2014-08-08T02:48:04.066Z,0
2014-08-08T02:48:22.144Z,0
2014-08-08T02:48:40.441Z,0
2014-08-08T02:48:58.724Z,0
2014-08-08T02:49:17.006Z,0
2014-08-08T02:49:35.302Z,0
2014-08-08T02:49:53.586Z,0
2014-08-08T02:50:11.883Z,0
2014-08-08T02:50:30.164Z,0
2014-08-08T02:50:48.445Z,0
2014-08-08T02:51:06.728Z,0
2014-08-08T02:51:25.025Z,0
2014-08-08T02:51:43.306Z,0
2014-08-08T02:52:01.605Z,0
2014-08-08T02:52:20.090Z,0
2014-08-08T02:52:38.183Z,0
2014-08-08T02:52:56.466Z,0
2014-08-08T02:53:14.747Z,0
2014-08-08T02:53:33.044Z,0
2014-08-08T02:53:51.325Z,0
2014-08-08T02:54:09.625Z,0
2014-08-08T02:54:27.906Z,0
2014-08-08T02:54:46.391Z,0
2014-08-08T02:55:04.688Z,0
2014-08-08T02:55:22.767Z,0
2014-08-08T02:55:41.048Z,0
2014-08-08T02:55:59.345Z,0
2014-08-08T02:56:17.629Z,0
2014-08-08T02:56:35.910Z,0
2014-08-08T02:56:54.207Z,0
2014-08-08T02:57:12.490Z,0
2014-08-08T02:57:30.772Z,0
2014-08-08T02:57:49.053Z,0
2014-08-08T02:58:07.350Z,1
2014-08-08T02:58:25.633Z,1
2014-08-08T02:58:43.914Z,1
2014-08-08T02:59:02.414Z,1
2014-08-08T02:59:20.494Z,1
2014-08-08T02:59:38.776Z,1
2014-08-08T02:59:57.072Z,1
2014-08-08T03:00:15.369Z,2
2014-08-08T03:00:33.653Z,39
2014-08-08T03:00:51.934Z,61
2014-08-08T03:01:10.231Z,78
2014-08-08T03:01:28.514Z,86
2014-08-08T03:01:46.811Z,95
2014-08-08T03:02:05.108Z,101
2014-08-08T03:02:23.389Z,107
2014-08-08T03:02:41.688Z,110
2014-08-08T03:02:59.969Z,114
2014-08-08T03:03:18.266Z,119
2014-08-08T03:03:36.565Z,121
2014-08-08T03:03:54.846Z,124
2014-08-08T03:04:13.143Z,124
2014-08-08T03:04:31.440Z,124
2014-08-08T03:04:49.723Z,123
2014-08-08T03:05:08.020Z,123
2014-08-08T03:05:26.317Z,123
2014-08-08T03:05:44.616Z,123
2014-08-08T03:06:02.897Z,121
2014-08-08T03:06:21.194Z,122
2014-08-08T03:06:39.491Z,118
2014-08-08T03:06:57.775Z,119
2014-08-08T03:07:16.072Z,117
2014-08-08T03:07:34.353Z,118
2014-08-08T03:07:52.652Z,119
2014-08-08T03:08:10.949Z,117
2014-08-08T03:08:29.230Z,119
2014-08-08T03:08:47.527Z,119
2014-08-08T03:09:05.809Z,121
2014-08-08T03:09:24.106Z,122
2014-08-08T03:09:42.403Z,121
2014-08-08T03:10:00.702Z,123
2014-08-08T03:10:18.983Z,124
2014-08-08T03:10:37.280Z,125
2014-08-08T03:10:55.563Z,125
2014-08-08T03:11:13.860Z,126
2014-08-08T03:11:32.141Z,17
2014-08-08T03:11:50.438Z,18
2014-08-08T03:12:08.721Z,19
2014-08-08T03:12:27.018Z,20
2014-08-08T03:12:45.300Z,21
2014-08-08T03:13:03.598Z,22
2014-08-08T03:13:21.880Z,23
2014-08-08T03:13:40.177Z,24
2014-08-08T03:13:58.459Z,25
2014-08-08T03:14:16.756Z,26
2014-08-08T03:14:35.037Z,28
2014-08-08T03:14:53.336Z,29
2014-08-08T03:15:11.617Z,30
2014-08-08T03:15:29.914Z,31
2014-08-08T03:15:48.195Z,33
2014-08-08T03:16:06.495Z,34
2014-08-08T03:16:24.776Z,36
2014-08-08T03:16:43.058Z,37
2014-08-08T03:17:01.356Z,39
2014-08-08T03:17:19.638Z,40
2014-08-08T03:17:37.935Z,42
2014-08-08T03:17:56.218Z,43
2014-08-08T03:18:14.515Z,45
2014-08-08T03:18:32.796Z,47
2014-08-08T03:18:51.095Z,49
2014-08-08T03:19:09.392Z,51
2014-08-08T03:19:27.673Z,52
2014-08-08T03:19:45.970Z,54
2014-08-08T03:20:04.252Z,56
2014-08-08T03:20:22.549Z,58
2014-08-08T03:20:40.830Z,61
2014-08-08T03:20:59.130Z,63
2014-08-08T03:21:17.427Z,65
2014-08-08T03:21:35.708Z,67
2014-08-08T03:21:54.006Z,69
2014-08-08T03:22:12.287Z,72
2014-08-08T03:22:30.584Z,74
2014-08-08T03:22:48.865Z,76
2014-08-08T03:23:07.165Z,79
2014-08-08T03:23:25.447Z,81
2014-08-08T03:23:43.743Z,84
2014-08-08T03:24:02.026Z,87
2014-08-08T03:24:20.323Z,89
2014-08-08T03:24:38.604Z,92
2014-08-08T03:24:57.104Z,95
2014-08-08T03:25:15.200Z,97
2014-08-08T03:25:33.481Z,100
2014-08-08T03:25:51.778Z,103
2014-08-08T03:26:10.061Z,106
2014-08-08T03:26:28.358Z,109
2014-08-08T03:26:46.655Z,112
2014-08-08T03:27:04.936Z,115
2014-08-08T03:27:23.236Z,118
2014-08-08T03:27:41.486Z,121
2014-08-08T03:27:59.845Z,125
2014-08-08T03:28:18.128Z,128
2014-08-08T03:28:36.425Z,132
2014-08-08T03:28:54.707Z,135
2014-08-08T03:29:13.003Z,139
2014-08-08T03:29:31.302Z,143
2014-08-08T03:29:49.584Z,146
2014-08-08T03:30:07.880Z,150
2014-08-08T03:30:26.178Z,154
2014-08-08T03:30:44.460Z,158
2014-08-08T03:31:02.756Z,162
2014-08-08T03:31:21.053Z,166
2014-08-08T03:31:39.338Z,169
2014-08-08T03:31:57.634Z,173
2014-08-08T03:32:15.931Z,177
2014-08-08T03:32:34.215Z,181
2014-08-08T03:32:52.511Z,185
2014-08-08T03:33:10.808Z,189
2014-08-08T03:33:29.090Z,193
2014-08-08T03:33:47.388Z,197
2014-08-08T03:34:05.670Z,201
2014-08-08T03:34:23.967Z,205
2014-08-08T03:34:42.265Z,209
2014-08-08T03:35:00.547Z,214
2014-08-08T03:35:18.859Z,218
2014-08-08T03:35:37.140Z,222
2014-08-08T03:35:55.439Z,226
2014-08-08T03:36:13.736Z,230
2014-08-08T03:36:32.033Z,234
2014-08-08T03:36:50.316Z,239
2014-08-08T03:37:08.613Z,243
2014-08-08T03:37:26.910Z,247
2014-08-08T03:37:45.191Z,252
2014-08-08T03:38:03.490Z,257
2014-08-08T03:38:21.771Z,262
2014-08-08T03:38:40.068Z,267
2014-08-08T03:38:58.366Z,272
2014-08-08T03:39:16.647Z,277
2014-08-08T03:39:34.944Z,282
2014-08-08T03:39:53.243Z,287
2014-08-08T03:40:11.524Z,292
2014-08-08T03:40:29.821Z,297
2014-08-08T03:40:48.103Z,302
2014-08-08T03:41:06.402Z,307
2014-08-08T03:41:24.699Z,312
2014-08-08T03:41:42.996Z,316
2014-08-08T03:42:01.279Z,321
2014-08-08T03:42:19.576Z,325
2014-08-08T03:42:37.858Z,329
2014-08-08T03:42:56.155Z,333
2014-08-08T03:43:14.437Z,337
2014-08-08T03:43:32.734Z,341
2014-08-08T03:43:51.032Z,345
2014-08-08T03:44:09.314Z,349
2014-08-08T03:44:27.611Z,353
2014-08-08T03:44:45.907Z,356
2014-08-08T03:45:04.191Z,360
2014-08-08T03:45:22.488Z,364
2014-08-08T03:45:40.784Z,368
2014-08-08T03:45:59.068Z,371
2014-08-08T03:46:17.365Z,375
2014-08-08T03:46:35.661Z,378
2014-08-08T03:46:53.961Z,381
2014-08-08T03:47:12.243Z,384
2014-08-08T03:47:30.524Z,387
2014-08-08T03:47:48.821Z,389
2014-08-08T03:48:07.104Z,391
2014-08-08T03:48:25.416Z,394
2014-08-08T03:48:43.713Z,396
2014-08-08T03:49:02.011Z,398
2014-08-08T03:49:20.292Z,401
2014-08-08T03:49:38.589Z,404
2014-08-08T03:49:56.873Z,407
2014-08-08T03:50:15.169Z,410
2014-08-08T03:50:33.466Z,413
2014-08-08T03:50:51.750Z,417
2014-08-08T03:51:10.031Z,420
2014-08-08T03:51:28.328Z,424
2014-08-08T03:51:46.625Z,428
2014-08-08T03:52:04.908Z,432
2014-08-08T03:52:23.205Z,436
2014-08-08T03:52:41.502Z,439
2014-08-08T03:52:59.785Z,443
2014-08-08T03:53:18.082Z,447
2014-08-08T03:53:36.379Z,451
2014-08-08T03:53:54.677Z,455
2014-08-08T03:54:12.974Z,459
2014-08-08T03:54:31.256Z,464
2014-08-08T03:54:49.552Z,468
2014-08-08T03:55:07.851Z,472
2014-08-08T03:55:26.133Z,476
2014-08-08T03:55:44.429Z,481
2014-08-08T03:56:02.712Z,484
2014-08-08T03:56:21.009Z,488
2014-08-08T03:56:39.305Z,492
2014-08-08T03:56:57.589Z,495
2014-08-08T03:57:15.886Z,498
2014-08-08T03:57:34.167Z,501
2014-08-08T03:57:52.466Z,503
2014-08-08T03:58:10.763Z,506
2014-08-08T03:58:29.059Z,508
2014-08-08T03:58:47.341Z,510
2014-08-08T03:59:05.640Z,512
2014-08-08T03:59:23.936Z,514
2014-08-08T03:59:42.218Z,516
2014-08-08T04:00:00.517Z,518
2014-08-08T04:00:18.798Z,520
2014-08-08T04:00:37.095Z,522
2014-08-08T04:00:55.394Z,524
2014-08-08T04:01:13.690Z,526
2014-08-08T04:01:31.987Z,529
2014-08-08T04:01:50.284Z,531
2014-08-08T04:02:08.567Z,534
2014-08-08T04:02:26.864Z,537
2014-08-08T04:02:45.161Z,540
2014-08-08T04:03:03.460Z,543
2014-08-08T04:03:21.741Z,547
2014-08-08T04:03:40.038Z,550
2014-08-08T04:03:58.337Z,554
2014-08-08T04:04:16.618Z,557
2014-08-08T04:04:34.915Z,560
2014-08-08T04:04:53.198Z,564
2014-08-08T04:05:11.495Z,567
2014-08-08T04:05:29.792Z,571
2014-08-08T04:05:48.073Z,574
2014-08-08T04:06:06.372Z,577
2014-08-08T04:06:24.669Z,580
2014-08-08T04:06:42.950Z,583
2014-08-08T04:07:01.249Z,585
2014-08-08T04:07:19.546Z,587
2014-08-08T04:07:37.827Z,589
2014-08-08T04:07:56.126Z,590
2014-08-08T04:08:14.423Z,591
2014-08-08T04:08:32.704Z,592
2014-08-08T04:08:51.003Z,593
2014-08-08T04:09:09.503Z,594
2014-08-08T04:09:27.597Z,595
2014-08-08T04:09:45.878Z,596
2014-08-08T04:10:04.177Z,598
2014-08-08T04:10:22.458Z,600
2014-08-08T04:10:40.755Z,603
2014-08-08T04:10:59.053Z,606
2014-08-08T04:11:17.334Z,608
2014-08-08T04:11:35.631Z,612
2014-08-08T04:11:53.915Z,615
2014-08-08T04:12:12.211Z,619
2014-08-08T04:12:30.508Z,622
2014-08-08T04:12:48.790Z,626
2014-08-08T04:13:07.088Z,630
2014-08-08T04:13:25.385Z,633
2014-08-08T04:13:43.667Z,636
2014-08-08T04:14:01.965Z,639
2014-08-08T04:14:20.262Z,642
2014-08-08T04:14:38.559Z,644
2014-08-08T04:14:56.842Z,646
2014-08-08T04:15:15.139Z,648
2014-08-08T04:15:33.421Z,650
2014-08-08T04:15:51.719Z,653
2014-08-08T04:16:10.016Z,654
2014-08-08T04:16:28.298Z,656
2014-08-08T04:16:46.594Z,658
2014-08-08T04:17:04.893Z,659
2014-08-08T04:17:23.175Z,661
2014-08-08T04:17:41.471Z,662
2014-08-08T04:17:59.755Z,663
2014-08-08T04:18:18.067Z,665
2014-08-08T04:18:36.348Z,666
2014-08-08T04:18:54.647Z,668
2014-08-08T04:19:12.944Z,671
2014-08-08T04:19:31.225Z,673
2014-08-08T04:19:49.522Z,675
2014-08-08T04:20:07.806Z,677
2014-08-08T04:20:26.102Z,679
2014-08-08T04:20:44.399Z,681
2014-08-08T04:21:02.683Z,683
2014-08-08T04:21:20.979Z,684
2014-08-08T04:21:39.276Z,686
2014-08-08T04:21:57.560Z,687
2014-08-08T04:22:15.856Z,689
2014-08-08T04:22:34.153Z,690
2014-08-08T04:22:52.437Z,691
2014-08-08T04:23:10.733Z,692
2014-08-08T04:23:29.015Z,694
2014-08-08T04:23:47.312Z,695
2014-08-08T04:24:05.609Z,697
2014-08-08T04:24:23.906Z,698
2014-08-08T04:24:42.188Z,700